Pagrindinis puslapis
METAR-TAF:

METAR-TAF

Oro uostai :

Sierra Blanca Regional Airport

Ruidoso, Naujoji Meksika, Jungtinės Amerikos Valstijos

platuma: 33-28N, ilguma: 105-32W, Aukštis: 2076 m

Dabartinis oras

Ataskaita buvo paskelbta 21 minutes, ne 16:55 UTC
Ramus vėjas
Temperatūra 20°C
Drėgmė 68%
Slėgis 1029 hPa
Matomumas: 16.1 km
Su prošvaistėmis ne aukštis 2700 ft
Su prošvaistėmis ne aukštis 7000 ft

METAR: KSRR 031655Z AUTO 00000KT 10SM BKN027 BKN070 20/14 A3039 RMK AO2

Laikas: 11:16 (17:16 UTC)


TAF: trūkstamas

Orai ataskaitas ir orų prognozės (METAR, TAF).

turimą stotys yra geltonos ir raudonos taškus žemėlapyje.

Perkelti pele per norėdami pamatyti stoties vardą.

Tada spustelėkite, norėdami matyti oro stebėjimo ir prognozės.

Norėdami pakeisti žemėlapį: spustelėkite ant žalios mygtukų su juodo kryžiaus žemyn,; žalią mygtuką su brūkšneliu, jei norite nutolinti; arba žalių rodyklių gretimoms žemėlapius.


METAR-TAF: